Flight Track Log - Related Links

Times and Time Zones

All times are in EST time to prevent confusion due to time zone crossing. See the FLG3432 flight status page for this flight to view local times or setup timezone preferences in your user account.

Time Position Orientation Groundspeed Altitude Reporting Facility
EST Latitude Longitude Course Direction KTS MPH feet Rate Location/Type
Sun 09:19:29 AM 32.8833 -97.0333 164° South 174 200 1,200  Level Dallas / Fort Worth TRACON
Sun 09:20:29 AM 32.8333 -97.0167 164° South 176 203 3,300 1,800 Climbing Dallas / Fort Worth TRACON
Sun 09:21:29 AM 32.7833 -96.9833 151° Southeast 255 293 4,800 2,150 Climbing Dallas / Fort Worth TRACON
Sun 09:22:29 AM 32.8000 -96.9167 73° East 304 350 7,600 2,165 Climbing Dallas / Fort Worth TRACON
Sun 09:24:07 AM 32.9247 -96.9322 354° North 301 346 10,500 1,887 Climbing Fort Worth Center
Sun 09:25:08 AM 33.0208 -96.9639 345° North 337 388 12,600 1,918 Climbing Fort Worth Center
Sun 09:26:09 AM 33.1206 -96.9631 360° North 377 434 14,400 1,721 Climbing Fort Worth Center
Sun 09:27:10 AM 33.2289 -96.9381 11° North 394 453 16,100 1,366 Climbing Fort Worth Center
Sun 09:28:12 AM 33.3458 -96.9056 13° North 420 483 17,200 1,366 Climbing Fort Worth Center
Sun 09:29:13 AM 33.4672 -96.8764 11° North 441 507 18,900 1,721 Climbing Fort Worth Center
Sun 09:30:14 AM 33.5964 -96.8425 12° North 440 506 20,700 1,623 Climbing Fort Worth Center
Sun 09:31:15 AM 33.7183 -96.8133 11° North 446 513 22,200 1,415 Climbing Fort Worth Center
Sun 09:32:17 AM 33.8417 -96.7825 12° North 449 517 23,600 1,317 Climbing Fort Worth Center
Sun 09:33:18 AM 33.9661 -96.7514 12° North 455 524 24,900 1,377 Climbing Fort Worth Center
Sun 09:34:19 AM 34.0989 -96.7161 12° North 456 525 26,400 1,415 Climbing Fort Worth Center
Sun 09:35:21 AM 34.2244 -96.6850 12° North 459 528 27,800 1,220 Climbing Fort Worth Center
Sun 09:36:22 AM 34.3478 -96.6533 12° North 455 524 28,900 984 Climbing Fort Worth Center
Sun 09:37:23 AM 34.4753 -96.6200 12° North 466 536 29,800 829 Climbing Fort Worth Center
Sun 09:38:25 AM 34.6033 -96.5872 12° North 471 542 30,600 878 Climbing Fort Worth Center
Sun 09:39:26 AM 34.7317 -96.5531 12° North 476 548 31,600 1,033 Climbing Fort Worth Center
Sun 09:40:27 AM 34.8583 -96.5203 12° North 468 539 32,700 878 Climbing Fort Worth Center
Sun 09:41:29 AM 34.9856 -96.4900 11° North 468 539 33,400 585 Climbing Fort Worth Center
Sun 09:42:30 AM 35.1403 -96.4492 12° North 476 548 33,900 634 Climbing Fort Worth Center
Sun 09:43:32 AM 35.2694 -96.4158 12° North 477 549 34,700 537 Climbing Fort Worth Center
Sun 09:44:33 AM 35.3986 -96.3833 12° North 476 548 35,000 168 Climbing Fort Worth Center
Sun 09:45:19 AM 35.4961 -96.3553 13° North 471 542 35,000  Level Kansas City Center
Sun 09:46:21 AM 35.6222 -96.3219 12° North 467 537 35,000  Level Kansas City Center
Sun 09:47:23 AM 35.7472 -96.2894 12° North 465 535 35,000  Level Kansas City Center
Sun 09:48:24 AM 35.8744 -96.2564 12° North 462 532 35,000  Level Kansas City Center
Sun 09:49:25 AM 36.0022 -96.2228 12° North 465 535 35,000  Level Kansas City Center
Sun 09:50:26 AM 36.1319 -96.1892 12° North 470 541 35,000  Level Kansas City Center
Sun 09:51:25 AM 36.2628 -96.1547 12° North 474 545 35,000  Level Kansas City Center
Sun 09:52:29 AM 36.3942 -96.1194 12° North 477 549 35,000  Level Kansas City Center
Sun 09:53:28 AM 36.5258 -96.0839 12° North 478 550 35,000  Level Kansas City Center
Sun 09:54:31 AM 36.6575 -96.0489 12° North 478 550 35,000  Level Kansas City Center
Sun 09:55:33 AM 36.7878 -96.0131 12° North 475 547 35,000  Level Kansas City Center
Sun 09:56:34 AM 36.9183 -95.9775 12° North 477 549 35,000  Level Kansas City Center
Sun 09:57:36 AM 37.0486 -95.9417 12° North 475 547 35,000  Level Kansas City Center
Sun 09:59:38 AM 37.3353 -95.8611 13° North 478 550 35,000  Level Kansas City Center
Sun 10:00:38 AM 37.4642 -95.8261 12° North 473 544 35,000  Level Kansas City Center
Sun 10:01:39 AM 37.5944 -95.7911 12° North 475 547 35,000  Level Kansas City Center
Sun 10:02:41 AM 37.7217 -95.7572 12° North 468 539 35,000  Level Kansas City Center
Sun 10:03:42 AM 37.8517 -95.7189 13° North 474 545 35,000  Level Kansas City Center
Sun 10:04:45 AM 37.9911 -95.6814 12° North 473 544 35,000  Level Kansas City Center
Sun 10:05:45 AM 38.1153 -95.6461 13° North 477 549 35,000  Level Kansas City Center
Sun 10:06:47 AM 38.2386 -95.6117 12° North 474 545 35,000  Level Kansas City Center
Sun 10:07:48 AM 38.3839 -95.5708 12° North 478 550 35,000  Level Kansas City Center
Sun 10:08:48 AM 38.5069 -95.5358 13° North 473 544 35,000  Level Kansas City Center
Sun 10:09:51 AM 38.6536 -95.4939 13° North 482 555 35,000  Level Kansas City Center
Sun 10:10:53 AM 38.7783 -95.4597 12° North 479 551 35,000  Level Kansas City Center
Sun 10:11:52 AM 38.9031 -95.4231 13° North 479 551 35,000  Level Kansas City Center
Sun 10:12:56 AM 39.0464 -95.3803 13° North 483 556 35,000  Level Kansas City Center
Sun 10:13:57 AM 39.1839 -95.3411 12° North 484 557 35,000  Level Kansas City Center
Sun 10:14:59 AM 39.3203 -95.3006 13° North 483 556 35,000  Level Kansas City Center
Sun 10:15:59 AM 39.4583 -95.2614 12° North 485 558 35,000  Level Kansas City Center
Sun 10:17:00 AM 39.5831 -95.2250 13° North 481 554 35,000  Level Kansas City Center
Sun 10:18:03 AM 39.7094 -95.1881 13° North 484 557 35,000  Level Kansas City Center
Sun 10:19:03 AM 39.8558 -95.1450 13° North 482 555 35,000  Level Kansas City Center
Sun 10:20:03 AM 39.9819 -95.1069 13° North 484 557 35,000  Level Kansas City Center
Sun 10:21:04 AM 40.1075 -95.0708 12° North 484 557 35,000  Level Kansas City Center
Sun 10:22:06 AM 40.2542 -95.0256 13° North 484 557 35,000  Level Kansas City Center
Sun 10:23:08 AM 40.3797 -94.9925 11° North 482 555 35,000  Level Kansas City Center
Sun 10:24:11 AM 40.5264 -94.9497 12° North 482 555 35,000  Level Kansas City Center
Sun 10:25:10 AM 40.6528 -94.9111 13° North 485 558 35,000  Level Kansas City Center
Sun 10:26:31 AM 40.8158 -94.8564 14° North 485 558 35,000  Level Minneapolis Center
Sun 10:27:32 AM 40.9478 -94.8167 13° North 487 560 35,000  Level Minneapolis Center
Sun 10:28:33 AM 41.1061 -94.7683 13° North 488 562 35,000  Level Minneapolis Center
Sun 10:29:34 AM 41.2375 -94.7275 13° North 488 562 35,000  Level Minneapolis Center
Sun 10:30:35 AM 41.3700 -94.6872 13° North 489 563 35,000  Level Minneapolis Center
Sun 10:31:36 AM 41.5031 -94.6453 13° North 491 565 35,000  Level Minneapolis Center
Sun 10:32:37 AM 41.6369 -94.6042 13° North 494 568 35,000  Level Minneapolis Center
Sun 10:33:38 AM 41.7706 -94.5622 13° North 496 571 35,000  Level Minneapolis Center
Sun 10:34:39 AM 41.9064 -94.5203 13° North 499 574 35,000 -390 Level Minneapolis Center
Sun 10:35:41 AM 42.0403 -94.4781 13° North 498 573 34,200 -927 Descending Minneapolis Center
Sun 10:36:42 AM 42.1767 -94.4333 14° North 502 578 33,100 -590 Descending Minneapolis Center
Sun 10:37:43 AM 42.3139 -94.3914 13° North 504 580 33,000 -49 Descending Minneapolis Center
Sun 10:38:44 AM 42.4700 -94.3392 14° North 503 579 33,000  Level Minneapolis Center
Sun 10:39:45 AM 42.6067 -94.2794 18° North 520 598 33,000  Level Minneapolis Center
Sun 10:40:46 AM 42.7311 -94.1608 35° Northeast 547 629 33,000  Level Minneapolis Center
Sun 10:41:47 AM 42.8517 -94.0294 39° Northeast 556 640 33,000  Level Minneapolis Center
Sun 10:42:48 AM 42.9703 -93.8989 39° Northeast 553 636 33,000  Level Minneapolis Center
Sun 10:43:49 AM 43.0900 -93.7683 39° Northeast 552 635 33,000 -341 Level Minneapolis Center
Sun 10:44:51 AM 43.2072 -93.6392 39° Northeast 546 628 32,300 -1,463 Descending Minneapolis Center
Sun 10:45:52 AM 43.3353 -93.5569 25° Northeast 519 597 30,000 -2,902 Descending Minneapolis Center
Sun 10:46:53 AM 43.4892 -93.5342 North 470 541 26,400 -2,951 Descending Minneapolis Center
Sun 10:47:54 AM 43.5958 -93.5242 North 442 509 24,000 -2,361 Descending Minneapolis Center
Sun 10:48:55 AM 43.7108 -93.5139 North 422 486 21,600 -2,537 Descending Minneapolis Center
Sun 10:49:57 AM 43.8364 -93.5011 North 383 441 18,800 -2,634 Descending Minneapolis Center
Sun 10:50:58 AM 43.9383 -93.4925 North 369 425 16,200 -2,262 Descending Minneapolis Center
Sun 10:51:59 AM 44.0431 -93.4817 North 376 433 14,200 -1,918 Descending Minneapolis Center
Sun 10:53:00 AM 44.1442 -93.4722 North 365 420 12,300 -1,561 Descending Minneapolis Center
Sun 10:54:02 AM 44.2389 -93.4572 North 346 398 11,000 -634 Descending Minneapolis Center
Sun 10:55:03 AM 44.3275 -93.3958 26° Northeast 354 407 11,000  Level Minneapolis Center
Sun 10:56:04 AM 44.4133 -93.3358 27° Northeast 348 400 11,000  Level Minneapolis Center
Sun 10:57:05 AM 44.5003 -93.2747 27° Northeast 351 404 11,000  Level Minneapolis Center
Sun 10:58:07 AM 44.5769 -93.2203 27° Northeast 315 362 11,000 -98 Level Minneapolis Center
Sun 10:59:08 AM 44.6650 -93.2039 North 258 297 10,800 -714 Descending Minneapolis Center
Sun 11:00:13 AM 44.7242 -93.2406 336° Northwest 232 267 9,500 -1,238 Descending Minneapolis Center
Sun 11:01:14 AM 44.7831 -93.2778 336° Northwest 220 253 8,200 -1,366 Descending Minneapolis Center
Sun 11:02:16 AM 44.8244 -93.3297 318° Northwest 211 243 6,700 -1,073 Descending Minneapolis Center
Sun 11:03:17 AM 44.8442 -93.4008 291° West 197 227 6,000 -689 Descending Minneapolis Center
Sun 11:04:18 AM 44.8617 -93.4653 291° West 181 208 5,300 -492 Descending Minneapolis Center
Sun 11:05:19 AM 44.9047 -93.4764 350° North 210 242 5,000 -738 Descending Minneapolis Center
Sun 11:06:20 AM 44.9392 -93.4125 53° Northeast 220 253 3,800 -1,131 Descending Minneapolis Center
Sun 11:07:21 AM 44.9342 -93.3417 96° East 182 209 2,700 -976 Descending Minneapolis Center
Sun 11:08:23 AM 44.9108 -93.2883 122° Southeast 160 184 1,800 -871 Descending Minneapolis Center
Sun 11:10:00 AM 44.8820 -93.2218 55° Northeast  Level Estimated
Sun 11:17:00 AM 44.8820 -93.2218 55° Northeast  Level Estimated

Login

Don't have an account? Register now (free) for customized features, flight alerts, and more!